Crystal Springs, Mississippi
Current Conditions -  °F | °C
As of 1:35 PM on Tuesday 21 Oct 2014 (Local Time) from KJVW Reporting Station
Clear Clear  
Wind Chill: 77°   Ceiling: Unl
Heat Index: 78°   Visibility: 10mi
Dew Point: 72°   Wind: 3mph
Humidity: 83%   Direction: 150°SSE
Pressure: 30.05"   Gusts: NA
Location:  31.99°N, 90.36°W
Report Text: KJVW 211835Z AUTO 15003KT 10SM CLR 25/22 A3005 RMK AO2
Loading
Personal Weather Stations






























Interactive Weather Map
Tropical Storm Tracking
New forecast layout! Learn more

10-Day Weather Forecast

Advertisements
Track Severe Weather on mobile